sensor_id;sensor_type;location;lat;lon;timestamp;pressure;altitude;pressure_sealevel;temperature;humidity
50790;BME280;37287;47.554;7.844;2023-05-08T00:01:23;98169.63;;;13.68;100.00
50790;BME280;37287;47.554;7.844;2023-05-08T00:03:52;98161.44;;;13.68;100.00
50790;BME280;37287;47.554;7.844;2023-05-08T00:06:19;98157.56;;;13.58;100.00
50790;BME280;37287;47.554;7.844;2023-05-08T00:08:46;98159.91;;;13.52;100.00
50790;BME280;37287;47.554;7.844;2023-05-08T00:11:14;98163.00;;;13.47;100.00
50790;BME280;37287;47.554;7.844;2023-05-08T00:13:42;98163.38;;;13.42;100.00
50790;BME280;37287;47.554;7.844;2023-05-08T00:16:10;98159.88;;;13.38;100.00
50790;BME280;37287;47.554;7.844;2023-05-08T00:18:38;98163.75;;;13.37;100.00
50790;BME280;37287;47.554;7.844;2023-05-08T00:21:05;98169.22;;;13.37;100.00
50790;BME280;37287;47.554;7.844;2023-05-08T00:23:32;98163.38;;;13.35;100.00
50790;BME280;37287;47.554;7.844;2023-05-08T00:26:03;98171.53;;;13.35;100.00
50790;BME280;37287;47.554;7.844;2023-05-08T00:28:30;98166.47;;;13.37;100.00
50790;BME280;37287;47.554;7.844;2023-05-08T00:30:59;98167.28;;;13.41;100.00
50790;BME280;37287;47.554;7.844;2023-05-08T00:33:26;98171.16;;;13.40;100.00
50790;BME280;37287;47.554;7.844;2023-05-08T00:36:02;98176.59;;;13.40;100.00
50790;BME280;37287;47.554;7.844;2023-05-08T00:38:31;98179.31;;;13.47;100.00
50790;BME280;37287;47.554;7.844;2023-05-08T00:40:58;98177.75;;;13.50;100.00
50790;BME280;37287;47.554;7.844;2023-05-08T00:43:25;98166.50;;;13.51;100.00
50790;BME280;37287;47.554;7.844;2023-05-08T00:45:57;98176.19;;;13.49;100.00
50790;BME280;37287;47.554;7.844;2023-05-08T00:48:27;98171.94;;;13.44;100.00
50790;BME280;37287;47.554;7.844;2023-05-08T00:50:56;98171.53;;;13.46;100.00
50790;BME280;37287;47.554;7.844;2023-05-08T00:53:29;98173.47;;;13.49;100.00
50790;BME280;37287;47.554;7.844;2023-05-08T00:55:57;98169.63;;;13.53;100.00
50790;BME280;37287;47.554;7.844;2023-05-08T00:58:26;98173.50;;;13.56;100.00
50790;BME280;37287;47.554;7.844;2023-05-08T01:00:55;98173.88;;;13.58;100.00
50790;BME280;37287;47.554;7.844;2023-05-08T01:03:22;98177.78;;;13.61;100.00
50790;BME280;37287;47.554;7.844;2023-05-08T01:05:50;98181.28;;;13.65;100.00
50790;BME280;37287;47.554;7.844;2023-05-08T01:08:18;98181.28;;;13.65;100.00
50790;BME280;37287;47.554;7.844;2023-05-08T01:24:41;98181.66;;;13.56;100.00
50790;BME280;37287;47.554;7.844;2023-05-08T01:32:45;98186.34;;;13.59;100.00
50790;BME280;37287;47.554;7.844;2023-05-08T01:35:29;98180.09;;;13.55;100.00
50790;BME280;37287;47.554;7.844;2023-05-08T01:38:05;98186.72;;;13.54;100.00
50790;BME280;37287;47.554;7.844;2023-05-08T01:40:50;98183.59;;;13.55;100.00
50790;BME280;37287;47.554;7.844;2023-05-08T01:43:32;98182.81;;;13.51;100.00
50790;BME280;37287;47.554;7.844;2023-05-08T01:46:07;98182.03;;;13.51;100.00
50790;BME280;37287;47.554;7.844;2023-05-08T01:48:39;98181.28;;;13.50;100.00
50790;BME280;37287;47.554;7.844;2023-05-08T01:51:16;98180.88;;;13.48;100.00
50790;BME280;37287;47.554;7.844;2023-05-08T01:53:47;98184.00;;;13.50;100.00
50790;BME280;37287;47.554;7.844;2023-05-08T01:56:20;98176.22;;;13.56;100.00
50790;BME280;37287;47.554;7.844;2023-05-08T01:58:51;98180.09;;;13.62;100.00
50790;BME280;37287;47.554;7.844;2023-05-08T02:01:22;98178.16;;;13.66;100.00
50790;BME280;37287;47.554;7.844;2023-05-08T02:03:52;98173.13;;;13.57;100.00
50790;BME280;37287;47.554;7.844;2023-05-08T02:06:21;98180.47;;;13.50;100.00
50790;BME280;37287;47.554;7.844;2023-05-08T02:08:48;98182.03;;;13.51;100.00
50790;BME280;37287;47.554;7.844;2023-05-08T02:11:17;98180.88;;;13.55;100.00
50790;BME280;37287;47.554;7.844;2023-05-08T02:13:46;98190.22;;;13.62;100.00
50790;BME280;37287;47.554;7.844;2023-05-08T02:16:16;98175.84;;;13.57;100.00
50790;BME280;37287;47.554;7.844;2023-05-08T02:18:48;98178.56;;;13.57;100.00
50790;BME280;37287;47.554;7.844;2023-05-08T02:21:17;98173.09;;;13.54;100.00
50790;BME280;37287;47.554;7.844;2023-05-08T02:23:45;98180.88;;;13.59;100.00
50790;BME280;37287;47.554;7.844;2023-05-08T02:26:14;98193.69;;;13.58;100.00
50790;BME280;37287;47.554;7.844;2023-05-08T02:28:42;98178.53;;;13.54;100.00
50790;BME280;37287;47.554;7.844;2023-05-08T02:31:10;98183.97;;;13.54;100.00
50790;BME280;37287;47.554;7.844;2023-05-08T02:33:40;98188.66;;;13.53;100.00
50790;BME280;37287;47.554;7.844;2023-05-08T02:36:11;98182.81;;;13.51;100.00
50790;BME280;37287;47.554;7.844;2023-05-08T02:38:40;98184.00;;;13.50;100.00
50790;BME280;37287;47.554;7.844;2023-05-08T02:41:09;98181.66;;;13.45;100.00
50790;BME280;37287;47.554;7.844;2023-05-08T02:43:39;98182.81;;;13.44;100.00
50790;BME280;37287;47.554;7.844;2023-05-08T02:46:12;98187.88;;;13.42;100.00
50790;BME280;37287;47.554;7.844;2023-05-08T02:51:19;98183.97;;;13.54;100.00
50790;BME280;37287;47.554;7.844;2023-05-08T02:53:59;98192.16;;;13.54;100.00
50790;BME280;37287;47.554;7.844;2023-05-08T02:56:57;98179.31;;;13.47;100.00
50790;BME280;37287;47.554;7.844;2023-05-08T02:59:51;98185.53;;;13.48;100.00
50790;BME280;37287;47.554;7.844;2023-05-08T03:02:34;98185.91;;;13.50;100.00
50790;BME280;37287;47.554;7.844;2023-05-08T03:05:10;98190.19;;;13.54;100.00
50790;BME280;37287;47.554;7.844;2023-05-08T03:07:40;98182.44;;;13.56;100.00
50790;BME280;37287;47.554;7.844;2023-05-08T03:10:10;98178.16;;;13.63;100.00
50790;BME280;37287;47.554;7.844;2023-05-08T03:12:42;98186.34;;;13.59;100.00
50790;BME280;37287;47.554;7.844;2023-05-08T03:15:20;98180.09;;;13.58;100.00
50790;BME280;37287;47.554;7.844;2023-05-08T03:17:53;98177.38;;;13.62;100.00
50790;BME280;37287;47.554;7.844;2023-05-08T03:20:25;98181.28;;;13.65;100.00
50790;BME280;37287;47.554;7.844;2023-05-08T03:22:56;98178.56;;;13.65;100.00
50790;BME280;37287;47.554;7.844;2023-05-08T03:25:23;98185.94;;;13.64;100.00
50790;BME280;37287;47.554;7.844;2023-05-08T03:27:51;98178.94;;;13.59;100.00
50790;BME280;37287;47.554;7.844;2023-05-08T03:30:19;98187.09;;;13.59;100.00
50790;BME280;37287;47.554;7.844;2023-05-08T03:32:46;98179.69;;;13.46;100.00
50790;BME280;37287;47.554;7.844;2023-05-08T03:35:17;98181.63;;;13.49;100.00
50790;BME280;37287;47.554;7.844;2023-05-08T03:37:46;98175.84;;;13.50;100.00
50790;BME280;37287;47.554;7.844;2023-05-08T03:40:13;98179.72;;;13.49;100.00
50790;BME280;37287;47.554;7.844;2023-05-08T03:42:40;98175.03;;;13.43;100.00
50790;BME280;37287;47.554;7.844;2023-05-08T03:45:08;98183.97;;;13.39;100.00
50790;BME280;37287;47.554;7.844;2023-05-08T03:47:37;98187.84;;;13.38;100.00
50790;BME280;37287;47.554;7.844;2023-05-08T03:50:09;98193.25;;;13.31;100.00
50790;BME280;37287;47.554;7.844;2023-05-08T03:52:37;98190.16;;;13.33;100.00
50790;BME280;37287;47.554;7.844;2023-05-08T03:55:06;98194.09;;;13.39;100.00
50790;BME280;37287;47.554;7.844;2023-05-08T03:57:44;98187.84;;;13.38;100.00
50790;BME280;37287;47.554;7.844;2023-05-08T04:00:28;98183.56;;;13.34;100.00
50790;BME280;37287;47.554;7.844;2023-05-08T04:03:18;98185.50;;;13.33;100.00
50790;BME280;37287;47.554;7.844;2023-05-08T04:06:13;98192.47;;;13.27;100.00
50790;BME280;37287;47.554;7.844;2023-05-08T04:08:48;98193.25;;;13.24;100.00
50790;BME280;37287;47.554;7.844;2023-05-08T04:11:41;98189.34;;;13.21;100.00
50790;BME280;37287;47.554;7.844;2023-05-08T04:14:12;98188.19;;;13.15;100.00
50790;BME280;37287;47.554;7.844;2023-05-08T04:16:48;98189.34;;;13.14;100.00
50790;BME280;37287;47.554;7.844;2023-05-08T04:19:23;98189.72;;;13.13;100.00
50790;BME280;37287;47.554;7.844;2023-05-08T04:21:53;98187.38;;;13.15;100.00
50790;BME280;37287;47.554;7.844;2023-05-08T04:24:26;98185.81;;;13.10;100.00
50790;BME280;37287;47.554;7.844;2023-05-08T04:26:56;98186.63;;;13.11;100.00
50790;BME280;37287;47.554;7.844;2023-05-08T04:29:26;98194.78;;;13.14;100.00
50790;BME280;37287;47.554;7.844;2023-05-08T04:31:54;98188.19;;;13.15;100.00
50790;BME280;37287;47.554;7.844;2023-05-08T04:34:22;98195.19;;;13.16;100.00
50790;BME280;37287;47.554;7.844;2023-05-08T04:36:48;98192.88;;;13.22;100.00
50790;BME280;37287;47.554;7.844;2023-05-08T04:39:15;98192.88;;;13.29;100.00
50790;BME280;37287;47.554;7.844;2023-05-08T04:41:42;98192.47;;;13.34;100.00
50790;BME280;37287;47.554;7.844;2023-05-08T04:44:08;98198.75;;;13.35;100.00
50790;BME280;37287;47.554;7.844;2023-05-08T04:46:36;98196.34;;;13.30;100.00
50790;BME280;37287;47.554;7.844;2023-05-08T04:49:03;98197.91;;;13.31;100.00
50790;BME280;37287;47.554;7.844;2023-05-08T04:51:33;98204.13;;;13.31;100.00
50790;BME280;37287;47.554;7.844;2023-05-08T04:54:01;98192.88;;;13.33;100.00
50790;BME280;37287;47.554;7.844;2023-05-08T04:56:27;98201.06;;;13.36;100.00
50790;BME280;37287;47.554;7.844;2023-05-08T04:58:55;98193.28;;;13.38;100.00
50790;BME280;37287;47.554;7.844;2023-05-08T05:01:22;98205.38;;;13.45;100.00
50790;BME280;37287;47.554;7.844;2023-05-08T05:03:49;98205.75;;;13.47;100.00
50790;BME280;37287;47.554;7.844;2023-05-08T05:06:19;98209.22;;;13.47;100.00
50790;BME280;37287;47.554;7.844;2023-05-08T05:08:46;98203.41;;;13.52;100.00
50790;BME280;37287;47.554;7.844;2023-05-08T05:11:12;98214.69;;;13.54;100.00
50790;BME280;37287;47.554;7.844;2023-05-08T05:13:43;98208.06;;;13.55;100.00
50790;BME280;37287;47.554;7.844;2023-05-08T05:16:12;98209.66;;;13.56;100.00
50790;BME280;37287;47.554;7.844;2023-05-08T05:18:39;98212.38;;;13.60;100.00
50790;BME280;37287;47.554;7.844;2023-05-08T05:21:05;98211.59;;;13.63;100.00
50790;BME280;37287;47.554;7.844;2023-05-08T05:23:32;98211.22;;;13.65;100.00
50790;BME280;37287;47.554;7.844;2023-05-08T05:25:59;98216.66;;;13.65;100.00
50790;BME280;37287;47.554;7.844;2023-05-08T05:28:25;98218.97;;;13.66;100.00
50790;BME280;37287;47.554;7.844;2023-05-08T05:30:52;98219.38;;;13.65;100.00
50790;BME280;37287;47.554;7.844;2023-05-08T05:33:18;98218.19;;;13.69;100.00
50790;BME280;37287;47.554;7.844;2023-05-08T05:35:47;98224.81;;;13.72;100.00
50790;BME280;37287;47.554;7.844;2023-05-08T05:38:14;98225.97;;;13.71;100.00
50790;BME280;37287;47.554;7.844;2023-05-08T05:40:41;98227.13;;;13.70;100.00
50790;BME280;37287;47.554;7.844;2023-05-08T05:43:09;98227.53;;;13.65;100.00
50790;BME280;37287;47.554;7.844;2023-05-08T05:45:36;98238.81;;;13.63;100.00
50790;BME280;37287;47.554;7.844;2023-05-08T05:48:05;98234.13;;;13.64;100.00
50790;BME280;37287;47.554;7.844;2023-05-08T05:50:38;98232.19;;;13.68;100.00
50790;BME280;37287;47.554;7.844;2023-05-08T05:53:05;98231.03;;;13.72;100.00
50790;BME280;37287;47.554;7.844;2023-05-08T05:55:31;98233.75;;;13.76;100.00
50790;BME280;37287;47.554;7.844;2023-05-08T05:58:00;98236.88;;;13.74;100.00
50790;BME280;37287;47.554;7.844;2023-05-08T06:00:26;98235.31;;;13.73;100.00
50790;BME280;37287;47.554;7.844;2023-05-08T06:02:53;98228.31;;;13.72;100.00
50790;BME280;37287;47.554;7.844;2023-05-08T06:05:22;98230.66;;;13.70;100.00
50790;BME280;37287;47.554;7.844;2023-05-08T06:07:48;98232.59;;;13.73;100.00
50790;BME280;37287;47.554;7.844;2023-05-08T06:10:15;98236.47;;;13.80;100.00
50790;BME280;37287;47.554;7.844;2023-05-08T06:12:42;98239.97;;;13.80;100.00
50790;BME280;37287;47.554;7.844;2023-05-08T06:15:09;98241.16;;;13.86;100.00
50790;BME280;37287;47.554;7.844;2023-05-08T06:17:36;98239.22;;;13.83;100.00
50790;BME280;37287;47.554;7.844;2023-05-08T06:20:06;98242.31;;;13.85;100.00
50790;BME280;37287;47.554;7.844;2023-05-08T06:22:34;98247.00;;;13.88;100.00
50790;BME280;37287;47.554;7.844;2023-05-08T06:25:03;98249.72;;;13.88;100.00
50790;BME280;37287;47.554;7.844;2023-05-08T06:27:32;98249.31;;;13.93;100.00
50790;BME280;37287;47.554;7.844;2023-05-08T06:30:00;98245.44;;;13.95;100.00
50790;BME280;37287;47.554;7.844;2023-05-08T06:32:27;98249.69;;;13.99;100.00
50790;BME280;37287;47.554;7.844;2023-05-08T06:34:54;98236.88;;;14.03;100.00
50790;BME280;37287;47.554;7.844;2023-05-08T06:37:21;98242.31;;;14.07;100.00
50790;BME280;37287;47.554;7.844;2023-05-08T06:39:48;98239.97;;;14.09;100.00
50790;BME280;37287;47.554;7.844;2023-05-08T06:42:35;98247.75;;;14.14;100.00
50790;BME280;37287;47.554;7.844;2023-05-08T06:45:05;98239.56;;;14.18;100.00
50790;BME280;37287;47.554;7.844;2023-05-08T06:47:36;98239.19;;;14.23;100.00
50790;BME280;37287;47.554;7.844;2023-05-08T06:50:03;98246.97;;;14.28;100.00
50790;BME280;37287;47.554;7.844;2023-05-08T06:52:30;98250.06;;;14.30;100.00
50790;BME280;37287;47.554;7.844;2023-05-08T06:54:58;98236.06;;;14.32;100.00
50790;BME280;37287;47.554;7.844;2023-05-08T06:57:27;98248.50;;;14.36;100.00
50790;BME280;37287;47.554;7.844;2023-05-08T06:59:55;98241.50;;;14.39;100.00
50790;BME280;37287;47.554;7.844;2023-05-08T07:02:23;98236.03;;;14.50;100.00
50790;BME280;37287;47.554;7.844;2023-05-08T07:04:50;98239.09;;;14.59;100.00
50790;BME280;37287;47.554;7.844;2023-05-08T07:07:17;98239.91;;;14.59;100.00
50790;BME280;37287;47.554;7.844;2023-05-08T07:09:45;98244.19;;;14.60;100.00
50790;BME280;37287;47.554;7.844;2023-05-08T07:12:13;98245.72;;;14.61;100.00
50790;BME280;37287;47.554;7.844;2023-05-08T07:14:42;98243.00;;;14.61;100.00
50790;BME280;37287;47.554;7.844;2023-05-08T07:17:10;98250.81;;;14.67;100.00
50790;BME280;37287;47.554;7.844;2023-05-08T07:19:38;98248.84;;;14.71;100.00
50790;BME280;37287;47.554;7.844;2023-05-08T07:22:05;98244.19;;;14.75;100.00
50790;BME280;37287;47.554;7.844;2023-05-08T07:24:32;98248.06;;;14.74;100.00
50790;BME280;37287;47.554;7.844;2023-05-08T07:26:58;98249.22;;;14.76;100.00
50790;BME280;37287;47.554;7.844;2023-05-08T07:29:25;98247.28;;;14.73;100.00
50790;BME280;37287;47.554;7.844;2023-05-08T07:31:53;98246.09;;;14.74;100.00
50790;BME280;37287;47.554;7.844;2023-05-08T07:34:20;98251.56;;;14.74;100.00
50790;BME280;37287;47.554;7.844;2023-05-08T07:36:47;98250.00;;;14.77;100.00
50790;BME280;37287;47.554;7.844;2023-05-08T07:39:13;98248.03;;;14.81;100.00
50790;BME280;37287;47.554;7.844;2023-05-08T07:41:40;98258.53;;;14.86;100.00
50790;BME280;37287;47.554;7.844;2023-05-08T07:44:07;98257.72;;;14.93;100.00
50790;BME280;37287;47.554;7.844;2023-05-08T07:46:33;98258.88;;;14.95;100.00
50790;BME280;37287;47.554;7.844;2023-05-08T07:49:04;98259.69;;;14.92;100.00
50790;BME280;37287;47.554;7.844;2023-05-08T07:51:33;98263.19;;;14.96;100.00
50790;BME280;37287;47.554;7.844;2023-05-08T07:54:11;98269.00;;;14.99;100.00
50790;BME280;37287;47.554;7.844;2023-05-08T07:56:38;98254.63;;;14.94;100.00
50790;BME280;37287;47.554;7.844;2023-05-08T07:59:04;98253.44;;;14.95;100.00
50790;BME280;37287;47.554;7.844;2023-05-08T08:01:33;98253.81;;;15.01;100.00
50790;BME280;37287;47.554;7.844;2023-05-08T08:04:03;98260.03;;;15.09;100.00
50790;BME280;37287;47.554;7.844;2023-05-08T08:06:29;98254.56;;;15.09;100.00
50790;BME280;37287;47.554;7.844;2023-05-08T08:08:57;98256.91;;;15.07;100.00
50790;BME280;37287;47.554;7.844;2023-05-08T08:11:23;98257.28;;;15.09;100.00
50790;BME280;37287;47.554;7.844;2023-05-08T08:13:50;98256.09;;;15.17;100.00
50790;BME280;37287;47.554;7.844;2023-05-08T08:16:18;98253.72;;;15.19;100.00
50790;BME280;37287;47.554;7.844;2023-05-08T08:18:45;98257.97;;;15.24;100.00
50790;BME280;37287;47.554;7.844;2023-05-08T08:21:11;98256.78;;;15.36;100.00
50790;BME280;37287;47.554;7.844;2023-05-08T08:23:41;98263.75;;;15.44;100.00
50790;BME280;37287;47.554;7.844;2023-05-08T08:26:08;98259.06;;;15.44;100.00
50790;BME280;37287;47.554;7.844;2023-05-08T08:28:35;98262.19;;;15.43;100.00
50790;BME280;37287;47.554;7.844;2023-05-08T08:31:03;98267.69;;;15.36;100.00
50790;BME280;37287;47.554;7.844;2023-05-08T08:33:34;98260.31;;;15.29;100.00
50790;BME280;37287;47.554;7.844;2023-05-08T08:36:00;98261.50;;;15.21;100.00
50790;BME280;37287;47.554;7.844;2023-05-08T08:38:29;98263.06;;;15.18;100.00
50790;BME280;37287;47.554;7.844;2023-05-08T08:40:56;98263.09;;;15.15;100.00
50790;BME280;37287;47.554;7.844;2023-05-08T08:43:24;98260.38;;;15.11;100.00
50790;BME280;37287;47.554;7.844;2023-05-08T08:45:57;98259.63;;;15.10;100.00
50790;BME280;37287;47.554;7.844;2023-05-08T08:48:28;98264.69;;;15.12;100.00
50790;BME280;37287;47.554;7.844;2023-05-08T08:50:58;98254.53;;;15.12;100.00
50790;BME280;37287;47.554;7.844;2023-05-08T08:53:34;98260.75;;;15.20;100.00
50790;BME280;37287;47.554;7.844;2023-05-08T08:56:04;98263.81;;;15.29;100.00
50790;BME280;37287;47.554;7.844;2023-05-08T08:58:59;98255.53;;;15.47;100.00
50790;BME280;37287;47.554;7.844;2023-05-08T09:01:38;98264.47;;;15.48;100.00
50790;BME280;37287;47.554;7.844;2023-05-08T09:04:07;98259.03;;;15.48;100.00
50790;BME280;37287;47.554;7.844;2023-05-08T09:06:38;98257.00;;;15.59;100.00
50790;BME280;37287;47.554;7.844;2023-05-08T09:09:11;98250.31;;;15.71;100.00
50790;BME280;37287;47.554;7.844;2023-05-08T09:11:39;98245.59;;;15.82;100.00
50790;BME280;37287;47.554;7.844;2023-05-08T09:14:07;98256.78;;;15.99;100.00
50790;BME280;37287;47.554;7.844;2023-05-08T09:16:34;98253.88;;;16.17;100.00
50790;BME280;37287;47.554;7.844;2023-05-08T09:19:01;98256.94;;;16.26;100.00
50790;BME280;37287;47.554;7.844;2023-05-08T09:21:30;98248.19;;;16.42;100.00
50790;BME280;37287;47.554;7.844;2023-05-08T09:23:59;98253.50;;;16.57;100.00
50790;BME280;37287;47.554;7.844;2023-05-08T09:29:17;98249.09;;;16.70;100.00
50790;BME280;37287;47.554;7.844;2023-05-08T09:31:48;98254.38;;;16.88;100.00
50790;BME280;37287;47.554;7.844;2023-05-08T09:34:25;98256.34;;;17.18;100.00
50790;BME280;37287;47.554;7.844;2023-05-08T09:36:54;98258.75;;;17.44;100.00
50790;BME280;37287;47.554;7.844;2023-05-08T09:39:23;98266.25;;;17.67;100.00
50790;BME280;37287;47.554;7.844;2023-05-08T09:41:59;98262.75;;;17.94;100.00
50790;BME280;37287;47.554;7.844;2023-05-08T09:44:44;98260.13;;;18.10;100.00
50790;BME280;37287;47.554;7.844;2023-05-08T09:47:19;98262.09;;;18.33;100.00
50790;BME280;37287;47.554;7.844;2023-05-08T09:50:06;98259.78;;;18.32;100.00
50790;BME280;37287;47.554;7.844;2023-05-08T09:52:35;98258.03;;;18.42;100.00
50790;BME280;37287;47.554;7.844;2023-05-08T09:55:05;98258.16;;;18.34;100.00
50790;BME280;37287;47.554;7.844;2023-05-08T09:57:35;98262.75;;;18.41;100.00
50790;BME280;37287;47.554;7.844;2023-05-08T10:00:11;98270.44;;;18.50;100.00
50790;BME280;37287;47.554;7.844;2023-05-08T10:02:40;98266.38;;;18.58;100.00
50790;BME280;37287;47.554;7.844;2023-05-08T10:05:29;98265.03;;;18.66;100.00
50790;BME280;37287;47.554;7.844;2023-05-08T10:08:19;98259.88;;;18.48;100.00
50790;BME280;37287;47.554;7.844;2023-05-08T10:10:48;98268.09;;;18.48;100.00
50790;BME280;37287;47.554;7.844;2023-05-08T10:13:26;98263.81;;;18.47;100.00
50790;BME280;37287;47.554;7.844;2023-05-08T10:15:53;98265.91;;;18.39;100.00
50790;BME280;37287;47.554;7.844;2023-05-08T10:18:23;98264.84;;;18.33;100.00
50790;BME280;37287;47.554;7.844;2023-05-08T10:20:54;98260.47;;;18.36;100.00
50790;BME280;37287;47.554;7.844;2023-05-08T10:23:23;98266.72;;;18.36;100.00
50790;BME280;37287;47.554;7.844;2023-05-08T10:25:54;98266.03;;;18.32;100.00
50790;BME280;37287;47.554;7.844;2023-05-08T10:28:47;98265.31;;;18.28;100.00
50790;BME280;37287;47.554;7.844;2023-05-08T10:31:17;98263.88;;;18.44;100.00
50790;BME280;37287;47.554;7.844;2023-05-08T10:33:49;98259.16;;;18.44;100.00
50790;BME280;37287;47.554;7.844;2023-05-08T10:36:17;98258.44;;;18.64;100.00
50790;BME280;37287;47.554;7.844;2023-05-08T10:38:43;98252.91;;;18.87;100.00
50790;BME280;37287;47.554;7.844;2023-05-08T10:41:10;98256.34;;;18.92;100.00
50790;BME280;37287;47.554;7.844;2023-05-08T10:43:40;98256.34;;;18.92;100.00
50790;BME280;37287;47.554;7.844;2023-05-08T10:46:17;98253.72;;;18.84;100.00
50790;BME280;37287;47.554;7.844;2023-05-08T10:54:37;98252.38;;;19.13;99.49
50790;BME280;37287;47.554;7.844;2023-05-08T10:57:10;98248.66;;;19.23;100.00
50790;BME280;37287;47.554;7.844;2023-05-08T10:59:45;98246.50;;;19.67;100.00
50790;BME280;37287;47.554;7.844;2023-05-08T11:02:14;98249.09;;;19.74;98.90
50790;BME280;37287;47.554;7.844;2023-05-08T11:04:42;98241.31;;;19.89;97.00
50790;BME280;37287;47.554;7.844;2023-05-08T11:07:11;98240.84;;;20.07;97.73
50790;BME280;37287;47.554;7.844;2023-05-08T11:12:25;98243.59;;;20.70;91.87
50790;BME280;37287;47.554;7.844;2023-05-08T11:17:27;98238.75;;;20.44;93.31
50790;BME280;37287;47.554;7.844;2023-05-08T11:19:59;98239.38;;;20.65;92.05
50790;BME280;37287;47.554;7.844;2023-05-08T11:22:30;98242.69;;;20.60;85.88
50790;BME280;37287;47.554;7.844;2023-05-08T11:25:09;98240.56;;;20.64;89.36
50790;BME280;37287;47.554;7.844;2023-05-08T11:35:55;98234.91;;;20.25;84.58
50790;BME280;37287;47.554;7.844;2023-05-08T11:38:35;98235.09;;;20.02;88.74
50790;BME280;37287;47.554;7.844;2023-05-08T11:41:22;98237.00;;;19.88;88.66
50790;BME280;37287;47.554;7.844;2023-05-08T11:46:40;98232.53;;;20.11;90.95
50790;BME280;37287;47.554;7.844;2023-05-08T11:49:15;98230.72;;;20.21;89.80
50790;BME280;37287;47.554;7.844;2023-05-08T11:51:52;98231.72;;;20.27;88.95
50790;BME280;37287;47.554;7.844;2023-05-08T11:54:21;98223.28;;;20.34;89.99
50790;BME280;37287;47.554;7.844;2023-05-08T11:56:52;98228.41;;;20.19;90.67
50790;BME280;37287;47.554;7.844;2023-05-08T11:59:22;98228.97;;;20.27;89.17
50790;BME280;37287;47.554;7.844;2023-05-08T12:01:49;98231.03;;;20.39;88.57
50790;BME280;37287;47.554;7.844;2023-05-08T12:04:21;98238.59;;;20.35;88.20
50790;BME280;37287;47.554;7.844;2023-05-08T12:06:48;98235.28;;;20.27;89.40
50790;BME280;37287;47.554;7.844;2023-05-08T12:09:17;98232.63;;;20.07;89.61
50790;BME280;37287;47.554;7.844;2023-05-08T12:11:45;98239.16;;;19.97;90.35
50790;BME280;37287;47.554;7.844;2023-05-08T12:14:12;98235.28;;;19.95;88.82
50790;BME280;37287;47.554;7.844;2023-05-08T12:16:42;98235.56;;;19.84;87.95
50790;BME280;37287;47.554;7.844;2023-05-08T12:19:13;98234.53;;;19.94;89.09
50790;BME280;37287;47.554;7.844;2023-05-08T12:21:47;98237.03;;;20.05;86.81
50790;BME280;37287;47.554;7.844;2023-05-08T12:24:15;98222.16;;;20.02;86.64
50790;BME280;37287;47.554;7.844;2023-05-08T12:26:48;98233.66;;;19.97;86.65
50790;BME280;37287;47.554;7.844;2023-05-08T12:29:18;98230.03;;;20.00;86.40
50790;BME280;37287;47.554;7.844;2023-05-08T12:31:45;98233.31;;;20.12;87.63
50790;BME280;37287;47.554;7.844;2023-05-08T12:34:12;98235.03;;;20.22;87.22
50790;BME280;37287;47.554;7.844;2023-05-08T12:36:39;98236.56;;;20.23;87.04
50790;BME280;37287;47.554;7.844;2023-05-08T12:39:13;98233.97;;;20.16;86.19
50790;BME280;37287;47.554;7.844;2023-05-08T12:41:48;98233.31;;;20.12;87.91
50790;BME280;37287;47.554;7.844;2023-05-08T12:44:22;98231.84;;;20.07;82.93
50790;BME280;37287;47.554;7.844;2023-05-08T12:46:51;98225.91;;;20.08;87.54
50790;BME280;37287;47.554;7.844;2023-05-08T12:51:49;98222.16;;;20.02;88.20
50790;BME280;37287;47.554;7.844;2023-05-08T12:54:16;98235.78;;;20.06;87.80
50790;BME280;37287;47.554;7.844;2023-05-08T12:56:48;98226.44;;;20.03;86.74
50790;BME280;37287;47.554;7.844;2023-05-08T12:59:15;98228.50;;;20.16;87.19
50790;BME280;37287;47.554;7.844;2023-05-08T13:01:41;98231.06;;;20.23;86.56
50790;BME280;37287;47.554;7.844;2023-05-08T13:04:10;98238.66;;;20.02;86.01
50790;BME280;37287;47.554;7.844;2023-05-08T13:06:37;98232.63;;;20.07;86.55
50790;BME280;37287;47.554;7.844;2023-05-08T13:09:07;98232.53;;;20.11;87.17
50790;BME280;37287;47.554;7.844;2023-05-08T13:11:38;98232.09;;;20.13;87.49
50790;BME280;37287;47.554;7.844;2023-05-08T13:14:04;98233.97;;;20.16;88.17
50790;BME280;37287;47.554;7.844;2023-05-08T13:16:41;98222.22;;;20.15;87.53
50790;BME280;37287;47.554;7.844;2023-05-08T13:19:08;98219.81;;;20.17;88.92
50790;BME280;37287;47.554;7.844;2023-05-08T13:21:34;98219.88;;;20.30;87.94
50790;BME280;37287;47.554;7.844;2023-05-08T13:24:01;98215.88;;;20.18;87.82
50790;BME280;37287;47.554;7.844;2023-05-08T13:26:34;98212.00;;;20.16;87.31
50790;BME280;37287;47.554;7.844;2023-05-08T13:29:00;98211.50;;;20.04;88.05
50790;BME280;37287;47.554;7.844;2023-05-08T13:31:27;98208.06;;;20.17;87.00
50790;BME280;37287;47.554;7.844;2023-05-08T13:33:55;98205.56;;;20.06;87.34
50790;BME280;37287;47.554;7.844;2023-05-08T13:36:22;98204.31;;;19.94;85.53
50790;BME280;37287;47.554;7.844;2023-05-08T13:38:49;98202.41;;;19.91;nan
50790;BME280;37287;47.554;7.844;2023-05-08T13:41:18;98204.69;;;20.09;87.16
50790;BME280;37287;47.554;7.844;2023-05-08T13:43:46;98201.69;;;20.20;86.08
50790;BME280;37287;47.554;7.844;2023-05-08T13:46:12;98188.94;;;20.26;86.70
50790;BME280;37287;47.554;7.844;2023-05-08T13:48:46;98196.91;;;20.37;85.77
50790;BME280;37287;47.554;7.844;2023-05-08T13:51:14;98195.81;;;20.34;85.09
50790;BME280;37287;47.554;7.844;2023-05-08T13:53:41;98182.94;;;20.31;84.19
50790;BME280;37287;47.554;7.844;2023-05-08T13:56:08;98181.91;;;20.25;83.98
50790;BME280;37287;47.554;7.844;2023-05-08T13:58:34;98187.41;;;20.25;81.70